Time;durP1;ratioP1;P1;durP2;ratioP2;P2;SDS_P1;SDS_P2;PMS_P1;PMS_P2;Temp;Humidity;BMP_temperature;BMP_pressure;BME280_temperature;BME280_humidity;BME280_pressure;Samples;Min_cycle;Max_cycle;Signal;HPM_P1;HPM_P2
2022/06/07 19:22:16;;;;;;;10.75;9.73;;;20.30;99.90;;;;;;2111978;27;20390;-73
2022/06/07 19:23:19;;;;;;;11.10;9.63;;;20.10;99.90;;;;;;2094852;28;20020;-72
2022/06/07 19:24:20;;;;;;;10.32;9.30;;;20.10;99.90;;;;;;2070724;28;20033;-73
2022/06/07 19:25:24;;;;;;;10.05;9.05;;;20.00;99.90;;;;;;2079644;28;20039;-73
2022/06/07 19:26:25;;;;;;;10.23;9.25;;;20.00;99.90;;;;;;2103301;28;20067;-72
2022/06/07 19:27:26;;;;;;;11.25;9.60;;;20.00;99.90;;;;;;2103406;28;20025;-72
2022/06/07 19:28:28;;;;;;;10.00;9.10;;;20.00;99.90;;;;;;2095888;28;20036;-72
2022/06/07 19:29:29;;;;;;;9.93;8.95;;;19.90;99.90;;;;;;2096876;28;20021;-72
2022/06/07 19:30:34;;;;;;;9.55;8.52;;;19.90;99.90;;;;;;2088295;28;20029;-73
2022/06/07 19:31:35;;;;;;;8.98;8.18;;;19.90;99.90;;;;;;2079885;28;20595;-72
2022/06/07 19:32:36;;;;;;;11.32;9.10;;;19.90;99.90;;;;;;2079039;28;20064;-73
2022/06/07 19:33:38;;;;;;;10.45;8.60;;;19.90;99.90;;;;;;2087211;28;20505;-72
2022/06/07 19:34:39;;;;;;;11.05;9.15;;;19.80;99.90;;;;;;2096041;28;20033;-73
2022/06/07 19:35:46;;;;;;;9.65;8.75;;;19.80;99.90;;;;;;2087367;28;20029;-73
2022/06/07 19:36:48;;;;;;;9.07;8.27;;;19.80;99.90;;;;;;2096235;28;20056;-73
2022/06/07 19:37:50;;;;;;;10.07;9.07;;;19.80;99.90;;;;;;2095668;28;20028;-73
2022/06/07 19:38:52;;;;;;;9.55;8.55;;;19.70;99.90;;;;;;2087811;28;20034;-74
2022/06/07 19:39:53;;;;;;;9.25;8.45;;;19.70;99.90;;;;;;2096627;28;20044;-73
2022/06/07 19:40:54;;;;;;;9.57;8.52;;;19.70;99.90;;;;;;2087109;28;20029;-73
2022/06/07 19:41:55;;;;;;;9.60;8.65;;;19.70;99.90;;;;;;2079079;28;20033;-73
2022/06/07 19:42:55;;;;;;;9.55;8.73;;;19.70;99.90;;;;;;2095732;28;20032;-73
2022/06/07 19:43:56;;;;;;;9.30;8.50;;;19.70;99.90;;;;;;2095353;28;20067;-73
2022/06/07 19:44:59;;;;;;;9.63;8.73;;;19.70;99.90;;;;;;2086761;28;20118;-73
2022/06/07 19:46:00;;;;;;;9.65;8.75;;;19.70;99.90;;;;;;2086437;28;20033;-74
2022/06/07 19:47:01;;;;;;;8.80;8.00;;;19.70;99.90;;;;;;2086771;28;20022;-72
2022/06/07 19:48:04;;;;;;;8.95;8.15;;;19.70;99.90;;;;;;2095634;28;20035;-74
2022/06/07 19:49:06;;;;;;;9.38;8.43;;;19.60;99.90;;;;;;2095393;28;20033;-73
2022/06/07 19:50:10;;;;;;;10.25;8.65;;;19.60;99.90;;;;;;2086654;28;20072;-73
2022/06/07 19:51:15;;;;;;;9.60;8.70;;;19.60;99.90;;;;;;2087069;28;20464;-72
2022/06/07 19:52:17;;;;;;;9.60;8.70;;;19.60;99.90;;;;;;2094966;28;20029;-74
2022/06/07 19:53:19;;;;;;;10.10;8.82;;;19.60;99.90;;;;;;2086598;28;20022;-72
2022/06/07 19:54:20;;;;;;;9.88;8.95;;;19.60;99.90;;;;;;2086671;28;20500;-73
2022/06/07 19:55:25;;;;;;;9.43;8.52;;;19.60;99.90;;;;;;2087052;28;20013;-73
2022/06/07 19:56:27;;;;;;;11.65;9.68;;;19.60;99.90;;;;;;2095614;28;20032;-74
2022/06/07 19:57:29;;;;;;;10.70;9.55;;;19.60;99.90;;;;;;2095462;28;20016;-73
2022/06/07 19:58:31;;;;;;;10.23;9.32;;;19.50;99.90;;;;;;2097779;28;20012;-72
2022/06/07 19:59:38;;;;;;;10.27;9.20;;;19.50;99.90;;;;;;2091848;28;20061;-73
2022/06/07 20:00:40;;;;;;;9.88;8.85;;;19.50;99.90;;;;;;2081444;28;20038;-73
2022/06/07 20:01:40;;;;;;;10.38;9.30;;;19.50;99.90;;;;;;2086270;28;20041;-76
2022/06/07 20:02:47;;;;;;;9.65;8.70;;;19.50;99.90;;;;;;2094834;28;20507;-72
2022/06/07 20:03:48;;;;;;;9.68;8.73;;;19.50;99.90;;;;;;2094986;28;20598;-72
2022/06/07 20:04:50;;;;;;;9.98;8.95;;;19.50;99.90;;;;;;2086219;28;20022;-72
2022/06/07 20:05:51;;;;;;;9.75;8.73;;;19.50;99.90;;;;;;2086056;28;20388;-73
2022/06/07 20:06:53;;;;;;;9.82;8.90;;;19.50;99.90;;;;;;2095056;28;20025;-72
2022/06/07 20:07:54;;;;;;;10.90;9.80;;;19.40;99.90;;;;;;2095135;28;20017;-72
2022/06/07 20:08:54;;;;;;;10.13;9.02;;;19.40;99.90;;;;;;2095040;28;20513;-73
2022/06/07 20:09:55;;;;;;;9.95;8.98;;;19.40;99.90;;;;;;2094984;28;20042;-72
2022/06/07 20:10:56;;;;;;;10.82;9.63;;;19.40;99.90;;;;;;2095011;28;20036;-73
2022/06/07 20:11:57;;;;;;;9.80;8.90;;;19.40;99.90;;;;;;2094774;28;20398;-73
2022/06/07 20:12:57;;;;;;;10.52;9.43;;;19.40;99.90;;;;;;2094993;28;20094;-73
2022/06/07 20:13:58;;;;;;;10.02;9.13;;;19.30;99.90;;;;;;2094939;28;20032;-72
2022/06/07 20:14:59;;;;;;;9.95;8.93;;;19.30;99.90;;;;;;2095047;28;20024;-73
2022/06/07 20:16:00;;;;;;;10.20;9.10;;;19.30;99.90;;;;;;2094909;28;20020;-73
2022/06/07 20:17:03;;;;;;;10.10;9.10;;;19.30;99.90;;;;;;2095388;28;20669;-73
2022/06/07 20:18:05;;;;;;;9.85;8.85;;;19.30;99.90;;;;;;2095165;28;20068;-74
2022/06/07 20:19:07;;;;;;;10.15;9.15;;;19.30;99.90;;;;;;2095480;28;20395;-74
2022/06/07 20:20:09;;;;;;;10.57;9.27;;;19.30;99.90;;;;;;2086473;28;20079;-73
2022/06/07 20:21:10;;;;;;;10.70;9.70;;;19.20;99.90;;;;;;2086994;28;20082;-74
2022/06/07 20:22:12;;;;;;;9.90;9.00;;;19.20;99.90;;;;;;2095251;28;20234;-73
2022/06/07 20:23:13;;;;;;;11.10;10.07;;;19.20;99.90;;;;;;2095474;28;20013;-73
2022/06/07 20:24:13;;;;;;;11.55;10.35;;;19.20;99.90;;;;;;2095321;28;20035;-73
2022/06/07 20:25:15;;;;;;;11.40;9.65;;;19.20;99.90;;;;;;2095514;28;20847;-75
2022/06/07 20:26:15;;;;;;;11.43;10.32;;;19.10;99.90;;;;;;2095413;28;20024;-74
2022/06/07 20:27:16;;;;;;;11.00;9.98;;;19.10;99.90;;;;;;2103122;28;20079;-73
2022/06/07 20:28:18;;;;;;;11.10;9.98;;;19.10;99.90;;;;;;2094461;28;20198;-75
2022/06/07 20:29:21;;;;;;;11.48;10.05;;;19.10;99.90;;;;;;2078005;28;20026;-73
2022/06/07 20:30:25;;;;;;;10.40;9.27;;;19.10;99.90;;;;;;2094573;28;20655;-74
2022/06/07 20:31:31;;;;;;;10.88;9.88;;;19.10;99.90;;;;;;2094213;28;20163;-74
2022/06/07 20:32:35;;;;;;;10.13;9.23;;;19.10;99.90;;;;;;2079011;28;20053;-75
2022/06/07 20:33:36;;;;;;;10.18;9.18;;;19.10;99.90;;;;;;2072983;28;20026;-73
2022/06/07 20:34:40;;;;;;;10.35;9.35;;;19.10;99.90;;;;;;2080700;28;20860;-73
2022/06/07 20:35:41;;;;;;;10.93;9.90;;;19.10;99.90;;;;;;2097105;28;20316;-74
2022/06/07 20:36:42;;;;;;;11.48;10.30;;;19.00;99.90;;;;;;2088984;28;20581;-75
2022/06/07 20:37:47;;;;;;;11.40;10.23;;;19.00;99.90;;;;;;2080916;28;20025;-72
2022/06/07 20:38:48;;;;;;;11.10;10.00;;;19.00;99.90;;;;;;2097388;28;20054;-75
2022/06/07 20:39:49;;;;;;;10.63;9.55;;;19.00;99.90;;;;;;2097219;28;20621;-74
2022/06/07 20:40:50;;;;;;;11.20;10.00;;;19.00;99.90;;;;;;2097391;28;20016;-75
2022/06/07 20:41:51;;;;;;;10.38;9.38;;;19.00;99.90;;;;;;2097372;28;20044;-74
2022/06/07 20:42:57;;;;;;;10.88;9.77;;;19.00;99.90;;;;;;2081125;28;20026;-74
2022/06/07 20:43:59;;;;;;;11.63;10.52;;;18.90;99.90;;;;;;2081765;28;20398;-74
2022/06/07 20:45:00;;;;;;;11.00;10.00;;;18.90;99.90;;;;;;2072492;28;20041;-74
2022/06/07 20:46:05;;;;;;;10.82;9.73;;;18.80;99.90;;;;;;2073370;28;20030;-74
2022/06/07 20:47:10;;;;;;;11.13;10.02;;;18.80;99.90;;;;;;2072700;28;20148;-75
2022/06/07 20:48:12;;;;;;;11.48;10.23;;;18.80;99.90;;;;;;2073098;28;20033;-75
2022/06/07 20:49:13;;;;;;;11.38;10.27;;;18.80;99.90;;;;;;2072940;28;20080;-74
2022/06/07 20:50:17;;;;;;;10.40;9.50;;;18.80;99.90;;;;;;2082052;28;20079;-73
2022/06/07 20:51:18;;;;;;;11.32;10.20;;;18.80;99.90;;;;;;2092188;28;20024;-74
2022/06/07 20:52:19;;;;;;;11.02;10.00;;;18.70;99.90;;;;;;2099981;28;20042;-73
2022/06/07 20:53:22;;;;;;;13.95;10.55;;;18.70;99.90;;;;;;2099170;28;20445;-74
2022/06/07 20:54:22;;;;;;;11.15;10.00;;;18.70;99.90;;;;;;2090437;28;20017;-74
2022/06/07 20:55:26;;;;;;;13.50;10.60;;;18.70;99.90;;;;;;2097736;28;20054;-74
2022/06/07 20:56:27;;;;;;;13.10;10.73;;;18.60;99.90;;;;;;2088251;28;20200;-74
2022/06/07 20:57:29;;;;;;;11.98;10.77;;;18.70;99.90;;;;;;2081230;28;20652;-73
2022/06/07 20:58:30;;;;;;;11.60;10.50;;;18.70;99.90;;;;;;2081041;28;20026;-73
2022/06/07 20:59:31;;;;;;;12.20;10.90;;;18.70;99.90;;;;;;2080942;28;20099;-75
2022/06/07 21:00:32;;;;;;;11.55;10.35;;;18.70;99.90;;;;;;2097303;28;20066;-74
2022/06/07 21:01:33;;;;;;;12.82;10.88;;;18.70;99.90;;;;;;2097081;28;20123;-75
2022/06/07 21:02:34;;;;;;;12.02;10.82;;;18.70;99.90;;;;;;2080688;28;20026;-74
2022/06/07 21:03:35;;;;;;;12.45;10.40;;;18.60;99.90;;;;;;2072141;28;20030;-74
2022/06/07 21:04:37;;;;;;;11.95;10.68;;;18.60;99.90;;;;;;2080793;28;20041;-75
2022/06/07 21:05:39;;;;;;;11.93;10.65;;;18.60;99.90;;;;;;2089084;28;20029;-74
2022/06/07 21:06:40;;;;;;;12.15;10.95;;;18.60;99.90;;;;;;2089352;28;20029;-74
2022/06/07 21:07:41;;;;;;;11.75;10.65;;;18.50;99.90;;;;;;2089430;28;20203;-74
2022/06/07 21:08:42;;;;;;;12.70;11.40;;;18.50;99.90;;;;;;2089486;28;20036;-74
2022/06/07 21:09:43;;;;;;;12.45;11.23;;;18.50;99.90;;;;;;2097171;28;20601;-73
2022/06/07 21:10:44;;;;;;;13.07;11.77;;;18.50;99.90;;;;;;2088284;28;20786;-72
2022/06/07 21:11:45;;;;;;;12.60;11.30;;;18.50;99.90;;;;;;2088411;28;20025;-73
2022/06/07 21:12:46;;;;;;;13.13;11.20;;;18.40;99.90;;;;;;2088493;28;20025;-75
2022/06/07 21:13:47;;;;;;;13.07;11.68;;;18.40;99.90;;;;;;2080224;28;20037;-73
2022/06/07 21:14:48;;;;;;;12.75;11.55;;;18.40;99.90;;;;;;2080505;28;20029;-74
2022/06/07 21:15:48;;;;;;;13.32;12.02;;;18.40;99.90;;;;;;2088397;28;20033;-73
2022/06/07 21:16:49;;;;;;;13.50;11.98;;;18.40;99.90;;;;;;2088429;28;20036;-73
2022/06/07 21:17:50;;;;;;;12.55;11.27;;;18.30;99.90;;;;;;2080496;28;20055;-73
2022/06/07 21:18:51;;;;;;;12.95;11.65;;;18.30;99.90;;;;;;2088757;28;20112;-73
2022/06/07 21:19:51;;;;;;;13.13;11.80;;;18.30;99.90;;;;;;2096991;28;20055;-73
2022/06/07 21:20:54;;;;;;;11.95;10.85;;;18.30;99.90;;;;;;2089447;28;20043;-74
2022/06/07 21:21:54;;;;;;;12.18;10.98;;;18.30;99.90;;;;;;2089208;28;20060;-73
2022/06/07 21:22:57;;;;;;;14.00;12.20;;;18.30;99.90;;;;;;2089374;28;20021;-74
2022/06/07 21:23:58;;;;;;;14.18;11.55;;;18.30;99.90;;;;;;2089211;28;20029;-75
2022/06/07 21:24:59;;;;;;;12.18;11.00;;;18.30;99.90;;;;;;2096694;28;20616;-74
2022/06/07 21:26:00;;;;;;;15.55;11.48;;;18.30;99.90;;;;;;2096116;28;20048;-74
2022/06/07 21:27:01;;;;;;;13.02;11.77;;;18.20;99.90;;;;;;2096268;28;20698;-74
2022/06/07 21:28:03;;;;;;;13.43;12.13;;;18.30;99.90;;;;;;2096219;28;20580;-74
2022/06/07 21:29:07;;;;;;;13.80;12.07;;;18.20;99.90;;;;;;2088618;28;20059;-74
2022/06/07 21:30:15;;;;;;;12.48;11.18;;;18.30;99.90;;;;;;2088415;28;20616;-74
2022/06/07 21:31:16;;;;;;;14.00;12.43;;;18.20;99.90;;;;;;2079788;28;20053;-74
2022/06/07 21:32:18;;;;;;;13.05;11.82;;;18.20;99.90;;;;;;2071427;28;20429;-75
2022/06/07 21:33:20;;;;;;;13.95;12.13;;;18.20;99.90;;;;;;2088182;28;20028;-74
2022/06/07 21:34:21;;;;;;;12.82;11.52;;;18.20;99.90;;;;;;2096096;28;20017;-74
2022/06/07 21:35:22;;;;;;;13.02;11.73;;;18.20;99.90;;;;;;2088506;28;20031;-74
2022/06/07 21:36:23;;;;;;;12.50;11.20;;;18.20;99.90;;;;;;2079228;28;20037;-74
2022/06/07 21:37:23;;;;;;;12.40;11.20;;;18.20;99.90;;;;;;2079733;28;20520;-74
2022/06/07 21:38:24;;;;;;;12.40;11.10;;;18.20;99.90;;;;;;2088726;28;20021;-75
2022/06/07 21:39:25;;;;;;;12.00;10.90;;;18.30;99.90;;;;;;2088815;28;20025;-74
2022/06/07 21:40:33;;;;;;;13.35;12.05;;;18.30;99.90;;;;;;2096209;28;20436;-74
2022/06/07 21:41:33;;;;;;;13.63;12.23;;;18.30;99.90;;;;;;2095307;28;20115;-75
2022/06/07 21:42:34;;;;;;;14.15;12.65;;;18.30;99.90;;;;;;2096422;28;20025;-75
2022/06/07 21:43:35;;;;;;;13.68;12.38;;;18.30;99.90;;;;;;2096306;28;20033;-75
2022/06/07 21:44:36;;;;;;;12.98;11.77;;;18.30;99.90;;;;;;2088986;28;20446;-74
2022/06/07 21:45:38;;;;;;;13.05;11.77;;;18.30;99.90;;;;;;2087896;28;20098;-74
2022/06/07 21:46:39;;;;;;;13.07;11.77;;;18.30;99.90;;;;;;2096335;28;20058;-72
2022/06/07 21:47:40;;;;;;;12.73;11.50;;;18.30;99.90;;;;;;2096376;28;20032;-72
2022/06/07 21:48:41;;;;;;;14.43;12.35;;;18.30;99.90;;;;;;2096433;28;20580;-72
2022/06/07 21:49:42;;;;;;;15.00;12.15;;;18.30;99.90;;;;;;2088236;28;20049;-73
2022/06/07 21:50:43;;;;;;;14.65;12.40;;;18.30;99.90;;;;;;2079897;28;20388;-73
2022/06/07 21:51:44;;;;;;;13.80;12.50;;;18.30;99.90;;;;;;2079836;28;20492;-73
2022/06/07 21:52:44;;;;;;;14.25;12.75;;;18.30;99.90;;;;;;2088314;28;20033;-73
2022/06/07 21:53:47;;;;;;;12.63;11.35;;;18.30;99.90;;;;;;2088434;28;20039;-72
2022/06/07 21:54:47;;;;;;;13.07;11.75;;;18.30;99.90;;;;;;2079461;28;20085;-72
2022/06/07 21:55:49;;;;;;;13.25;11.93;;;18.30;99.90;;;;;;2079588;28;20092;-73
2022/06/07 21:56:50;;;;;;;14.23;12.80;;;18.30;99.90;;;;;;2080131;28;20060;-72
2022/06/07 21:57:50;;;;;;;14.07;12.75;;;18.20;99.90;;;;;;2089237;28;20475;-72
2022/06/07 21:58:51;;;;;;;13.50;12.20;;;18.20;99.90;;;;;;2089556;28;20517;-72
2022/06/07 21:59:52;;;;;;;13.20;11.90;;;18.20;99.90;;;;;;2089451;28;20040;-73
2022/06/07 22:00:54;;;;;;;15.93;12.25;;;18.20;99.90;;;;;;2097175;28;20028;-72
2022/06/07 22:01:55;;;;;;;12.80;11.57;;;18.10;99.90;;;;;;2096954;28;20032;-74
2022/06/07 22:02:56;;;;;;;12.88;11.68;;;18.10;99.90;;;;;;2080634;28;20040;-72
2022/06/07 22:03:57;;;;;;;12.77;11.13;;;18.10;99.90;;;;;;2080248;28;20032;-72
2022/06/07 22:04:58;;;;;;;13.65;12.25;;;18.10;99.90;;;;;;2088733;28;20043;-72
2022/06/07 22:06:00;;;;;;;14.00;12.57;;;18.10;99.90;;;;;;2088478;28;20032;-73
2022/06/07 22:07:01;;;;;;;13.25;11.73;;;18.10;99.90;;;;;;2088851;28;20066;-72
2022/06/07 22:08:05;;;;;;;12.85;11.55;;;18.10;99.90;;;;;;2088461;28;20095;-74
2022/06/07 22:09:06;;;;;;;13.57;12.07;;;18.10;99.90;;;;;;2088752;28;20784;-74
2022/06/07 22:10:09;;;;;;;13.15;11.73;;;18.10;99.90;;;;;;2088528;28;20059;-72
2022/06/07 22:11:13;;;;;;;12.75;11.50;;;18.10;99.90;;;;;;2088447;28;20017;-75
2022/06/07 22:12:14;;;;;;;13.50;12.20;;;18.10;99.90;;;;;;2088778;28;20037;-72
2022/06/07 22:13:16;;;;;;;12.80;11.60;;;18.10;99.90;;;;;;2088735;28;20024;-74
2022/06/07 22:14:17;;;;;;;13.25;11.95;;;18.10;99.90;;;;;;2088353;28;20373;-74
2022/06/07 22:15:21;;;;;;;12.63;11.43;;;18.10;99.90;;;;;;2096229;28;20111;-73
2022/06/07 22:16:22;;;;;;;13.35;11.68;;;18.00;99.90;;;;;;2095637;28;20060;-74
2022/06/07 22:17:23;;;;;;;12.43;11.23;;;18.10;99.90;;;;;;2088380;28;20040;-74
2022/06/07 22:18:24;;;;;;;12.45;11.35;;;18.10;99.90;;;;;;2079646;28;20025;-73
2022/06/07 22:19:25;;;;;;;13.82;12.25;;;18.10;99.90;;;;;;2079439;28;20788;-73
2022/06/07 22:20:26;;;;;;;13.40;11.68;;;18.10;99.90;;;;;;2096290;28;20070;-73
2022/06/07 22:21:28;;;;;;;13.90;12.50;;;18.00;99.90;;;;;;2096207;28;20028;-73
2022/06/07 22:22:28;;;;;;;13.40;12.10;;;18.00;99.90;;;;;;2088593;28;20183;-73
2022/06/07 22:23:29;;;;;;;13.68;12.23;;;18.00;99.90;;;;;;2088633;28;20677;-73
2022/06/07 22:24:30;;;;;;;13.50;12.20;;;18.00;99.90;;;;;;2096716;28;20099;-73
2022/06/07 22:25:32;;;;;;;13.57;12.27;;;18.10;99.90;;;;;;2096019;28;20062;-73
2022/06/07 22:26:33;;;;;;;13.02;11.82;;;18.00;99.90;;;;;;2079410;28;20029;-73
2022/06/07 22:27:34;;;;;;;13.10;11.80;;;18.00;99.90;;;;;;2079914;28;20741;-73
2022/06/07 22:29:54;;;;;;;13.90;12.60;;;17.90;99.90;;;;;;2088370;28;20029;-72
2022/06/07 22:30:55;;;;;;;12.95;11.75;;;17.90;99.90;;;;;;2088119;28;20530;-72
2022/06/07 22:31:55;;;;;;;14.05;12.48;;;17.90;99.90;;;;;;2088116;28;20029;-72
2022/06/07 22:32:56;;;;;;;13.50;12.20;;;17.90;99.90;;;;;;2088128;28;20442;-72
2022/06/07 22:33:57;;;;;;;13.48;12.02;;;17.80;99.90;;;;;;2088312;28;20040;-72
2022/06/07 22:34:58;;;;;;;13.27;12.05;;;17.80;99.90;;;;;;2088111;28;20510;-73
2022/06/07 22:35:59;;;;;;;14.13;12.82;;;17.80;99.90;;;;;;2088002;28;20071;-72
2022/06/07 22:37:00;;;;;;;15.57;13.98;;;17.70;99.90;;;;;;2088311;28;20025;-73
2022/06/07 22:38:01;;;;;;;14.40;13.00;;;17.70;99.90;;;;;;2088166;28;20078;-73
2022/06/07 22:39:02;;;;;;;13.68;12.32;;;17.70;99.90;;;;;;2088057;28;20028;-73
2022/06/07 22:40:03;;;;;;;13.90;12.60;;;17.60;99.90;;;;;;2088141;28;20041;-73
2022/06/07 22:41:07;;;;;;;14.27;12.80;;;17.70;99.90;;;;;;2088317;28;20041;-74
2022/06/07 22:42:09;;;;;;;14.68;13.18;;;17.60;99.90;;;;;;2078864;28;20033;-74
2022/06/07 22:43:09;;;;;;;15.25;12.82;;;17.60;99.90;;;;;;2087510;28;20017;-73
2022/06/07 22:44:11;;;;;;;13.88;12.63;;;17.60;99.90;;;;;;2095689;28;20482;-72
2022/06/07 22:45:17;;;;;;;14.48;12.90;;;17.50;99.90;;;;;;2088137;28;20020;-73
2022/06/07 22:46:17;;;;;;;13.80;12.43;;;17.50;99.90;;;;;;2087963;28;20042;-73
2022/06/07 22:47:18;;;;;;;13.93;12.52;;;17.50;99.90;;;;;;2088090;28;20029;-72
2022/06/07 22:48:19;;;;;;;14.23;12.73;;;17.50;99.90;;;;;;2088338;28;20021;-73
2022/06/07 22:49:21;;;;;;;14.27;12.77;;;17.40;99.90;;;;;;2079323;28;20123;-73
2022/06/07 22:50:23;;;;;;;14.10;12.80;;;17.40;99.90;;;;;;2079394;28;20064;-73
2022/06/07 22:51:26;;;;;;;15.13;13.73;;;17.40;99.90;;;;;;2087672;28;20120;-73
2022/06/07 22:52:32;;;;;;;15.30;13.80;;;17.40;99.90;;;;;;2087308;28;20036;-73
2022/06/07 22:53:40;;;;;;;15.40;13.80;;;17.30;99.90;;;;;;2088236;28;20025;-73
2022/06/07 22:54:44;;;;;;;15.63;14.02;;;17.40;99.90;;;;;;2088258;28;20020;-73
2022/06/07 22:55:52;;;;;;;18.73;14.57;;;17.30;99.90;;;;;;2088132;28;20033;-73
2022/06/07 22:56:54;;;;;;;14.75;13.35;;;17.30;99.90;;;;;;2087779;28;20074;-73
2022/06/07 22:58:00;;;;;;;15.13;13.63;;;17.30;99.90;;;;;;2088047;28;20024;-73
2022/06/07 22:59:11;;;;;;;15.18;13.68;;;17.20;99.90;;;;;;2088468;28;20033;-73
2022/06/07 23:00:16;;;;;;;15.40;13.88;;;17.20;99.90;;;;;;2087643;28;20056;-73
2022/06/07 23:01:20;;;;;;;15.38;13.88;;;17.20;99.90;;;;;;2078623;28;20029;-73
2022/06/07 23:02:23;;;;;;;14.45;13.05;;;17.20;99.90;;;;;;2072253;28;20042;-73
2022/06/07 23:03:39;;;;;;;15.07;13.43;;;17.10;99.90;;;;;;2088034;28;20024;-73
2022/06/07 23:04:48;;;;;;;15.55;13.95;;;17.20;99.90;;;;;;2079242;28;20155;-73
2022/06/07 23:05:50;;;;;;;17.58;15.77;;;17.20;99.90;;;;;;2080173;28;20057;-73
2022/06/07 23:06:54;;;;;;;16.98;15.27;;;17.10;99.90;;;;;;2088118;28;20029;-73
2022/06/07 23:07:56;;;;;;;16.13;14.63;;;17.10;99.90;;;;;;2088208;28;20475;-73
2022/06/07 23:08:58;;;;;;;16.55;14.85;;;17.10;99.90;;;;;;2088067;28;20025;-73
2022/06/07 23:10:00;;;;;;;16.08;14.57;;;17.10;99.90;;;;;;2079440;28;20029;-72
2022/06/07 23:11:01;;;;;;;16.27;14.63;;;17.10;99.90;;;;;;2079127;28;20111;-72
2022/06/07 23:12:02;;;;;;;15.48;14.07;;;17.00;99.90;;;;;;2088209;28;20045;-73
2022/06/07 23:13:03;;;;;;;16.45;14.88;;;17.10;99.90;;;;;;2088155;28;20028;-72
2022/06/07 23:18:02;;;;;;;17.70;15.77;;;17.00;99.90;;;;;;2087791;28;20491;-73
2022/06/07 23:19:03;;;;;;;16.63;14.95;;;17.00;99.90;;;;;;2088349;28;20037;-72
2022/06/07 23:20:06;;;;;;;16.15;14.57;;;16.90;99.90;;;;;;2087841;28;20857;-72
2022/06/07 23:21:09;;;;;;;16.10;14.50;;;17.00;99.90;;;;;;2096026;28;20032;-73
2022/06/07 23:22:10;;;;;;;16.85;15.02;;;16.90;99.90;;;;;;2094895;28;20621;-73
2022/06/07 23:23:11;;;;;;;16.40;14.80;;;16.90;99.90;;;;;;2087591;28;20537;-73
2022/06/07 23:24:11;;;;;;;16.45;14.85;;;16.90;99.90;;;;;;2087771;28;20479;-73
2022/06/07 23:25:12;;;;;;;16.58;14.88;;;16.90;99.90;;;;;;2078969;28;20653;-73
2022/06/07 23:26:13;;;;;;;16.63;15.02;;;16.80;99.90;;;;;;2079161;28;20033;-72
2022/06/07 23:27:16;;;;;;;17.38;15.57;;;16.80;99.90;;;;;;2088242;28;20014;-74
2022/06/07 23:28:16;;;;;;;17.08;15.38;;;16.80;99.90;;;;;;2088139;28;20508;-72
2022/06/07 23:29:17;;;;;;;16.60;14.90;;;16.80;99.90;;;;;;2087809;28;20108;-73
2022/06/07 23:30:19;;;;;;;16.77;15.07;;;16.80;99.90;;;;;;2087713;28;20083;-76
2022/06/07 23:31:23;;;;;;;17.50;15.70;;;16.80;99.90;;;;;;2095346;28;20708;-73
2022/06/07 23:32:24;;;;;;;17.30;15.38;;;16.70;99.90;;;;;;2094951;28;20948;-72
2022/06/07 23:33:25;;;;;;;17.58;15.77;;;16.70;99.90;;;;;;2078869;28;20083;-73
2022/06/07 23:34:25;;;;;;;18.80;15.60;;;16.70;99.90;;;;;;2078863;28;20129;-72
2022/06/07 23:35:26;;;;;;;17.35;15.65;;;16.70;99.90;;;;;;2078829;28;20032;-72
2022/06/07 23:36:27;;;;;;;17.35;15.65;;;16.70;99.90;;;;;;2078623;28;20113;-73
2022/06/07 23:37:28;;;;;;;17.38;15.65;;;16.70;99.90;;;;;;2087656;28;20029;-73
2022/06/07 23:38:29;;;;;;;16.98;15.27;;;16.70;99.90;;;;;;2087715;28;20830;-73
2022/06/07 23:39:30;;;;;;;17.52;15.82;;;16.70;99.90;;;;;;2095404;28;20115;-73
2022/06/07 23:40:31;;;;;;;18.25;15.65;;;16.70;99.90;;;;;;2095122;28;20025;-73
2022/06/07 23:41:37;;;;;;;17.60;15.90;;;16.60;99.90;;;;;;2087589;28;20717;-73
2022/06/07 23:42:37;;;;;;;17.35;15.65;;;16.60;99.90;;;;;;2095378;28;20036;-73
2022/06/07 23:43:38;;;;;;;17.20;15.52;;;16.60;99.90;;;;;;2095410;28;20095;-73
2022/06/07 23:44:39;;;;;;;17.40;15.63;;;16.60;99.90;;;;;;2087778;28;20049;-73
2022/06/07 23:45:40;;;;;;;17.25;15.55;;;16.60;99.90;;;;;;2088025;28;20120;-72
2022/06/07 23:46:42;;;;;;;18.70;16.80;;;16.60;99.90;;;;;;2088317;28;20033;-73
2022/06/07 23:47:54;;;;;;;17.70;15.85;;;16.50;99.90;;;;;;2088083;28;20104;-72
2022/06/07 23:49:00;;;;;;;18.73;16.83;;;16.50;99.90;;;;;;2087639;28;20048;-73
2022/06/07 23:50:18;;;;;;;17.55;15.85;;;16.50;99.90;;;;;;2087644;28;20061;-73
2022/06/07 23:51:20;;;;;;;16.73;15.02;;;16.50;99.90;;;;;;2087703;28;20017;-73
2022/06/07 23:52:25;;;;;;;17.00;15.30;;;16.50;99.90;;;;;;2087468;28;20462;-73
2022/06/07 23:53:27;;;;;;;17.30;15.60;;;16.50;99.90;;;;;;2095354;28;20020;-73
2022/06/07 23:54:29;;;;;;;17.58;15.88;;;16.50;99.90;;;;;;2095320;28;20024;-73
2022/06/07 23:55:30;;;;;;;16.58;14.98;;;16.40;99.90;;;;;;2087607;28;20413;-73
2022/06/07 23:56:33;;;;;;;17.45;15.75;;;16.40;99.90;;;;;;2087395;28;20028;-73
2022/06/07 23:57:38;;;;;;;16.75;15.02;;;16.40;99.90;;;;;;2095755;28;20037;-74
2022/06/07 23:58:42;;;;;;;17.05;15.45;;;16.50;99.90;;;;;;2078620;28;20049;-73
2022/06/07 23:59:48;;;;;;;17.13;15.43;;;16.40;99.90;;;;;;2063959;28;20035;-75
